createdAt,value
2019-04-06T00:01:08.295Z,55.19
2019-04-06T00:03:39.928Z,55.07
2019-04-06T00:06:11.574Z,54.29
2019-04-06T00:08:44.133Z,54.27
2019-04-06T00:11:15.782Z,54.65
2019-04-06T00:13:47.451Z,54.66
2019-04-06T00:16:19.082Z,54.17
2019-04-06T00:18:50.391Z,54.74
2019-04-06T00:21:22.016Z,55.44
2019-04-06T00:23:53.643Z,56.33
2019-04-06T00:26:52.696Z,57.44
2019-04-06T00:29:24.284Z,58.47
2019-04-06T00:32:00.031Z,59.37
2019-04-06T00:34:31.620Z,60.01
2019-04-06T00:37:03.261Z,59.71
2019-04-06T00:39:34.779Z,58.54
2019-04-06T00:42:06.427Z,57.98
2019-04-06T00:44:38.009Z,57.78
2019-04-06T00:47:09.631Z,58.32
2019-04-06T00:49:41.199Z,58.80
2019-04-06T00:52:12.775Z,58.93
2019-04-06T00:54:44.347Z,59.09
2019-04-06T00:57:15.840Z,59.77
2019-04-06T00:59:47.486Z,58.92
2019-04-06T01:02:19.082Z,58.93
2019-04-06T01:04:50.825Z,58.83
2019-04-06T01:07:23.274Z,58.75
2019-04-06T01:09:56.593Z,57.63
2019-04-06T01:12:28.199Z,57.39
2019-04-06T01:14:59.875Z,57.20
2019-04-06T01:17:31.487Z,56.91
2019-04-06T01:20:03.117Z,56.83
2019-04-06T01:22:34.708Z,58.00
2019-04-06T01:25:07.820Z,57.36
2019-04-06T01:27:39.439Z,56.60
2019-04-06T01:30:11.318Z,58.31
2019-04-06T01:32:43.073Z,58.44
2019-04-06T01:35:14.660Z,56.70
2019-04-06T01:37:46.275Z,56.21
2019-04-06T01:40:17.861Z,56.19
2019-04-06T01:42:49.510Z,56.13
2019-04-06T01:45:21.028Z,56.40
2019-04-06T01:47:53.466Z,56.54
2019-04-06T01:50:24.979Z,56.50
2019-04-06T01:52:56.613Z,55.88
2019-04-06T01:55:28.210Z,55.08
2019-04-06T01:57:59.885Z,54.99
2019-04-06T02:00:31.496Z,54.75
2019-04-06T02:03:03.163Z,54.35
2019-04-06T02:05:34.743Z,54.67
2019-04-06T02:08:06.344Z,55.72
2019-04-06T02:10:39.242Z,56.86
2019-04-06T02:13:10.798Z,57.98
2019-04-06T02:15:42.472Z,58.79
2019-04-06T02:18:14.030Z,60.01
2019-04-06T02:20:46.671Z,60.43
2019-04-06T02:23:18.197Z,61.56
2019-04-06T02:25:51.322Z,62.00
2019-04-06T02:28:22.907Z,61.42
2019-04-06T02:30:59.018Z,60.64
2019-04-06T02:33:50.501Z,60.43
2019-04-06T02:36:39.851Z,60.42
2019-04-06T02:39:16.275Z,59.41
2019-04-06T02:41:49.480Z,60.18
2019-04-06T02:44:21.118Z,61.01
2019-04-06T02:46:52.882Z,60.13
2019-04-06T02:49:24.660Z,59.79
2019-04-06T02:51:56.159Z,59.29
2019-04-06T02:54:27.801Z,59.18
2019-04-06T02:56:59.427Z,59.61
2019-04-06T02:59:31.263Z,59.90
2019-04-06T03:02:02.930Z,60.21
2019-04-06T03:04:34.477Z,61.00
2019-04-06T03:07:06.087Z,61.14
2019-04-06T03:09:37.667Z,61.38
2019-04-06T03:12:09.308Z,61.81
2019-04-06T03:14:44.047Z,61.63
2019-04-06T03:17:14.265Z,61.83
2019-04-06T03:19:45.793Z,62.21
2019-04-06T03:22:17.459Z,63.54
2019-04-06T03:24:50.339Z,62.84
2019-04-06T03:27:21.916Z,63.27
2019-04-06T03:29:58.345Z,63.65
2019-04-06T03:32:26.880Z,64.14
2019-04-06T03:34:58.894Z,64.17
2019-04-06T03:37:30.857Z,64.48
2019-04-06T03:40:02.445Z,64.81
2019-04-06T03:42:34.074Z,64.14
2019-04-06T03:45:08.478Z,64.34
2019-04-06T03:47:40.060Z,63.71
2019-04-06T03:50:11.783Z,63.37
2019-04-06T03:52:43.371Z,62.55
2019-04-06T03:55:14.927Z,62.33
2019-04-06T03:57:46.516Z,61.94
2019-04-06T04:00:18.158Z,61.49
2019-04-06T04:02:49.833Z,60.29
2019-04-06T04:05:21.407Z,60.31
2019-04-06T04:07:53.001Z,60.04
2019-04-06T04:10:36.726Z,59.13
2019-04-06T04:13:08.288Z,57.80
2019-04-06T04:15:39.918Z,55.80
2019-04-06T04:18:11.579Z,54.01
2019-04-06T04:20:43.283Z,52.56
2019-04-06T04:23:14.905Z,50.82
2019-04-06T04:25:46.557Z,49.78
2019-04-06T04:28:21.285Z,49.61
2019-04-06T04:30:53.128Z,48.53
2019-04-06T04:33:24.772Z,47.25
2019-04-06T04:35:56.369Z,45.60
2019-04-06T04:38:28.000Z,45.92
2019-04-06T04:40:59.526Z,43.99
2019-04-06T04:43:31.228Z,43.99
2019-04-06T04:46:02.877Z,42.19
2019-04-06T04:48:34.445Z,42.74
2019-04-06T04:51:07.283Z,43.12
2019-04-06T04:53:38.804Z,41.45
2019-04-06T04:56:10.357Z,41.09
2019-04-06T04:58:42.177Z,39.50
2019-04-06T05:01:13.852Z,36.63
2019-04-06T05:03:45.845Z,37.72
2019-04-06T05:06:17.522Z,38.44
2019-04-06T05:08:49.051Z,36.37
2019-04-06T05:11:20.799Z,36.56
2019-04-06T05:13:55.242Z,37.04
2019-04-06T05:16:26.880Z,37.89
2019-04-06T05:18:58.464Z,36.29
2019-04-06T05:21:30.143Z,36.48
2019-04-06T05:24:01.714Z,34.51
2019-04-06T05:26:38.329Z,35.78
2019-04-06T05:29:10.189Z,33.83
2019-04-06T05:31:42.074Z,32.10
2019-04-06T05:34:13.634Z,33.80
2019-04-06T05:36:45.212Z,32.23
2019-04-06T05:39:16.759Z,31.83
2019-04-06T05:41:50.447Z,30.63
2019-04-06T05:44:23.218Z,31.68
2019-04-06T05:46:54.838Z,31.54
2019-04-06T05:49:26.473Z,30.18
2019-04-06T05:51:58.161Z,30.13
2019-04-06T05:54:29.778Z,31.79
2019-04-06T05:57:01.358Z,33.37
2019-04-06T05:59:32.921Z,30.46
2019-04-06T06:02:04.554Z,30.35
2019-04-06T06:04:36.135Z,31.45
2019-04-06T06:07:08.446Z,30.18
2019-04-06T06:09:40.019Z,30.47
2019-04-06T06:12:13.865Z,31.97
2019-04-06T06:14:45.449Z,29.33
2019-04-06T06:17:19.202Z,28.83
2019-04-06T06:19:50.780Z,29.66
2019-04-06T06:22:22.793Z,29.25
2019-04-06T06:24:54.389Z,27.13
2019-04-06T06:27:25.961Z,29.64
2019-04-06T06:29:57.532Z,28.55
2019-04-06T06:32:31.758Z,27.57
2019-04-06T06:35:03.350Z,27.52
2019-04-06T06:37:34.958Z,27.18
2019-04-06T06:40:07.748Z,25.93
2019-04-06T06:42:39.350Z,26.53
2019-04-06T06:45:11.076Z,26.68
2019-04-06T06:47:42.678Z,25.48
2019-04-06T06:50:14.506Z,26.59
2019-04-06T06:52:46.153Z,26.59
2019-04-06T06:55:18.433Z,27.45
2019-04-06T06:57:50.165Z,25.53
2019-04-06T07:00:21.926Z,24.80
2019-04-06T07:02:54.009Z,23.94
2019-04-06T07:05:25.739Z,24.71
2019-04-06T07:07:59.061Z,23.94
2019-04-06T07:10:30.822Z,24.33
2019-04-06T07:13:04.117Z,23.42
2019-04-06T07:15:35.719Z,22.84
2019-04-06T07:18:07.334Z,22.68
2019-04-06T07:20:38.882Z,24.06
2019-04-06T07:23:10.481Z,23.61
2019-04-06T07:25:42.024Z,23.58
2019-04-06T07:28:13.657Z,22.86
2019-04-06T07:30:45.264Z,21.94
2019-04-06T07:33:17.618Z,22.98
2019-04-06T07:35:49.270Z,23.58
2019-04-06T07:38:20.790Z,22.27
2019-04-06T07:40:52.555Z,21.08
2019-04-06T07:43:24.079Z,23.93
2019-04-06T07:45:57.516Z,22.50
2019-04-06T07:48:29.132Z,21.91
2019-04-06T07:51:00.700Z,21.03
2019-04-06T07:53:32.490Z,21.67
2019-04-06T07:56:04.257Z,21.64
2019-04-06T07:58:35.901Z,21.93
2019-04-06T08:01:07.485Z,22.85
2019-04-06T08:03:39.113Z,22.27
2019-04-06T08:06:10.705Z,21.86
2019-04-06T08:08:42.361Z,22.33
2019-04-06T08:11:13.867Z,21.81
2019-04-06T08:13:46.026Z,22.64
2019-04-06T08:16:17.663Z,22.82
2019-04-06T08:18:49.235Z,22.39
2019-04-06T08:21:20.898Z,22.60
2019-04-06T08:23:52.480Z,23.60
2019-04-06T08:26:24.081Z,22.85
2019-04-06T08:29:01.775Z,23.01
2019-04-06T08:31:29.047Z,22.19
2019-04-06T08:34:00.637Z,22.75
2019-04-06T08:36:32.368Z,23.24
2019-04-06T08:39:05.700Z,22.85
2019-04-06T08:41:37.258Z,22.96
2019-04-06T08:44:09.414Z,22.62
2019-04-06T08:46:41.062Z,22.93
2019-04-06T08:49:12.635Z,22.86
2019-04-06T08:51:44.269Z,21.57
2019-04-06T08:54:16.462Z,22.96
2019-04-06T08:56:50.355Z,23.35
2019-04-06T08:59:23.198Z,21.98
2019-04-06T09:01:56.696Z,22.00
2019-04-06T09:04:28.209Z,21.91
2019-04-06T09:06:59.753Z,21.88
2019-04-06T09:09:32.780Z,21.80
2019-04-06T09:12:06.378Z,21.09
2019-04-06T09:14:37.965Z,21.59
2019-04-06T09:17:09.748Z,21.27
2019-04-06T09:19:41.487Z,21.92
2019-04-06T09:22:13.123Z,23.03
2019-04-06T09:24:45.928Z,21.41
2019-04-06T09:27:18.820Z,22.41
2019-04-06T09:30:04.177Z,22.06
2019-04-06T09:32:35.652Z,23.77
2019-04-06T09:35:07.235Z,23.49
2019-04-06T09:37:39.015Z,24.80
2019-04-06T09:40:10.639Z,24.37
2019-04-06T09:42:42.215Z,25.78
2019-04-06T09:45:32.061Z,25.50
2019-04-06T09:48:11.325Z,25.30
2019-04-06T09:51:00.689Z,27.44
2019-04-06T09:53:42.755Z,25.19
2019-04-06T09:56:29.697Z,25.85
2019-04-06T09:59:17.901Z,25.46
2019-04-06T10:01:51.091Z,26.57
2019-04-06T10:04:33.472Z,25.85
2019-04-06T10:07:22.981Z,27.22
2019-04-06T10:09:56.141Z,27.33
2019-04-06T10:12:44.492Z,26.18
2019-04-06T10:15:17.777Z,27.48
2019-04-06T10:18:06.081Z,27.37
2019-04-06T10:20:43.103Z,26.59
2019-04-06T10:23:23.816Z,28.11
2019-04-06T10:25:59.975Z,26.60
2019-04-06T10:28:42.154Z,27.17
2019-04-06T10:31:15.332Z,26.43
2019-04-06T10:34:06.982Z,27.23
2019-04-06T10:36:44.302Z,27.19
2019-04-06T10:39:32.393Z,27.11
2019-04-06T10:42:08.285Z,26.60
2019-04-06T10:44:44.403Z,26.96
2019-04-06T10:47:29.783Z,27.41
2019-04-06T10:50:11.938Z,26.58
2019-04-06T10:52:45.101Z,26.57
2019-04-06T10:55:18.411Z,27.32
2019-04-06T10:57:51.531Z,26.56
2019-04-06T11:00:31.043Z,27.02
2019-04-06T11:03:10.241Z,26.80
2019-04-06T11:05:43.473Z,26.18
2019-04-06T11:08:19.373Z,27.07
2019-04-06T11:10:53.045Z,26.67
2019-04-06T11:13:29.456Z,27.42
2019-04-06T11:16:03.022Z,26.47
2019-04-06T11:18:36.355Z,26.58
2019-04-06T11:21:12.541Z,25.87
2019-04-06T11:23:45.736Z,27.21
2019-04-06T11:26:34.238Z,26.93
2019-04-06T11:29:25.903Z,27.15
2019-04-06T11:32:05.957Z,25.77
2019-04-06T11:34:56.371Z,25.77
2019-04-06T11:37:47.173Z,27.07
2019-04-06T11:40:23.479Z,27.87
2019-04-06T11:42:59.695Z,26.58
2019-04-06T11:45:49.628Z,25.38
2019-04-06T11:48:35.238Z,26.08
2019-04-06T11:51:24.499Z,25.65
2019-04-06T11:54:06.678Z,25.07
2019-04-06T11:56:41.001Z,25.84
2019-04-06T11:59:30.297Z,25.32
2019-04-06T12:02:03.814Z,25.65
2019-04-06T12:04:38.430Z,27.48
2019-04-06T12:07:11.639Z,27.11
2019-04-06T12:09:44.801Z,28.39
2019-04-06T12:12:30.483Z,25.28
2019-04-06T12:15:06.375Z,24.83
2019-04-06T12:17:49.853Z,24.97
2019-04-06T12:20:28.872Z,25.63
2019-04-06T12:23:02.055Z,26.15
2019-04-06T12:25:35.250Z,26.59
2019-04-06T12:28:11.601Z,25.90
2019-04-06T12:30:57.025Z,26.25
2019-04-06T12:33:36.303Z,26.59
2019-04-06T12:36:21.351Z,26.65
2019-04-06T12:39:09.785Z,27.33
2019-04-06T12:41:49.175Z,26.39
2019-04-06T12:44:38.536Z,27.09
2019-04-06T12:47:12.077Z,25.42
2019-04-06T12:49:46.707Z,26.15
2019-04-06T12:52:23.695Z,26.27
2019-04-06T12:54:56.960Z,26.10
2019-04-06T12:57:30.449Z,27.33
2019-04-06T13:00:03.647Z,26.74
2019-04-06T13:02:52.652Z,27.02
2019-04-06T13:05:38.242Z,26.72
2019-04-06T13:08:29.441Z,27.34
2019-04-06T13:11:19.888Z,27.02
2019-04-06T13:13:56.431Z,27.88
2019-04-06T13:16:29.581Z,27.32
2019-04-06T13:19:05.630Z,27.44
2019-04-06T13:21:45.122Z,27.42
2019-04-06T13:24:21.073Z,27.40
2019-04-06T13:27:08.105Z,26.86
2019-04-06T13:29:41.348Z,26.34
2019-04-06T13:32:30.784Z,28.53
2019-04-06T13:35:16.155Z,27.64
2019-04-06T13:38:01.339Z,27.42
2019-04-06T13:40:37.497Z,27.65
2019-04-06T13:43:19.909Z,26.60
2019-04-06T13:45:55.993Z,26.66
2019-04-06T13:48:38.303Z,26.43
2019-04-06T13:51:17.440Z,27.34
2019-04-06T13:53:53.741Z,25.66
2019-04-06T13:56:45.087Z,27.22
2019-04-06T13:59:34.585Z,27.32
2019-04-06T14:02:10.483Z,26.37
2019-04-06T14:04:48.941Z,26.60
2019-04-06T14:07:34.116Z,26.85
2019-04-06T14:10:14.767Z,27.36
2019-04-06T14:12:56.968Z,27.19
2019-04-06T14:15:40.079Z,27.02
2019-04-06T14:18:19.306Z,26.25
2019-04-06T14:21:08.861Z,26.79
2019-04-06T14:23:58.358Z,26.69
2019-04-06T14:26:34.554Z,27.01
2019-04-06T14:29:10.670Z,26.91
2019-04-06T14:32:00.601Z,27.48
2019-04-06T14:34:40.113Z,28.57
2019-04-06T14:37:14.920Z,27.95
2019-04-06T14:39:59.867Z,27.70
2019-04-06T14:42:33.072Z,27.63
2019-04-06T14:45:07.674Z,28.00
2019-04-06T14:47:56.997Z,26.89
2019-04-06T14:50:30.666Z,27.45
2019-04-06T14:53:12.751Z,27.41
2019-04-06T14:55:52.399Z,27.60
2019-04-06T14:58:29.125Z,27.62
2019-04-06T15:01:20.822Z,27.86
2019-04-06T15:04:10.217Z,28.09
2019-04-06T15:06:52.609Z,27.82
2019-04-06T15:09:30.231Z,27.93
2019-04-06T15:12:03.761Z,28.18
2019-04-06T15:14:42.853Z,28.39
2019-04-06T15:17:16.215Z,28.28
2019-04-06T15:19:52.144Z,28.13
2019-04-06T15:22:25.379Z,28.15
2019-04-06T15:25:13.701Z,28.09
2019-04-06T15:28:04.288Z,28.25
2019-04-06T15:30:56.930Z,28.07
2019-04-06T15:33:44.819Z,28.59
2019-04-06T15:36:18.398Z,28.37
2019-04-06T15:38:54.397Z,28.54
2019-04-06T15:41:36.978Z,28.63
2019-04-06T15:44:26.501Z,28.80
2019-04-06T15:47:02.762Z,28.84
2019-04-06T15:49:37.515Z,28.76
2019-04-06T15:52:15.339Z,28.99
2019-04-06T15:55:02.694Z,28.94
2019-04-06T15:57:44.785Z,29.19
2019-04-06T16:00:34.536Z,29.30
2019-04-06T16:03:14.083Z,29.21
2019-04-06T16:05:57.743Z,29.31
2019-04-06T16:08:33.315Z,29.40
2019-04-06T16:11:13.378Z,29.53
2019-04-06T16:14:05.348Z,29.69
2019-04-06T16:16:41.502Z,29.99
2019-04-06T16:19:33.334Z,30.09
2019-04-06T16:22:16.013Z,30.38
2019-04-06T16:24:58.546Z,30.70
2019-04-06T16:27:42.572Z,31.08
2019-04-06T16:30:16.652Z,31.35
2019-04-06T16:32:52.286Z,31.60
2019-04-06T16:35:30.589Z,31.71
2019-04-06T16:38:12.306Z,31.81
2019-04-06T16:40:53.158Z,31.89
2019-04-06T16:43:29.178Z,31.92
2019-04-06T16:46:07.614Z,31.94
2019-04-06T16:48:41.163Z,32.18
2019-04-06T16:51:17.733Z,32.36
2019-04-06T16:53:53.465Z,32.51
2019-04-06T16:56:40.562Z,32.65
2019-04-06T16:59:30.976Z,32.79
2019-04-06T17:02:22.102Z,32.85
2019-04-06T17:05:02.721Z,32.76
2019-04-06T17:07:54.661Z,32.82
2019-04-06T17:10:39.880Z,32.98
2019-04-06T17:13:31.164Z,32.98
2019-04-06T17:16:20.696Z,33.26
2019-04-06T17:18:56.715Z,33.26
2019-04-06T17:21:33.405Z,33.48
2019-04-06T17:24:12.421Z,33.72
2019-04-06T17:26:46.334Z,33.98
2019-04-06T17:29:31.276Z,33.98
2019-04-06T17:32:13.559Z,33.97
2019-04-06T17:34:54.424Z,33.96
2019-04-06T17:37:27.360Z,34.10
2019-04-06T17:40:04.324Z,34.23
2019-04-06T17:42:40.492Z,34.36
2019-04-06T17:45:20.176Z,34.41
2019-04-06T17:48:11.370Z,34.45
2019-04-06T17:50:47.800Z,34.48
2019-04-06T17:53:27.003Z,34.70
2019-04-06T17:56:03.401Z,34.82
2019-04-06T17:58:52.953Z,34.83
2019-04-06T18:01:36.742Z,35.04
2019-04-06T18:04:26.454Z,34.99
2019-04-06T18:07:02.571Z,35.01
2019-04-06T18:09:43.526Z,35.17
2019-04-06T18:12:32.974Z,35.08
2019-04-06T18:15:07.017Z,35.23
2019-04-06T18:17:38.606Z,35.27
2019-04-06T18:20:10.329Z,35.33
2019-04-06T18:22:41.991Z,35.54
2019-04-06T18:25:13.811Z,35.86
2019-04-06T18:27:45.410Z,35.72
2019-04-06T18:30:19.338Z,35.76
2019-04-06T18:32:59.662Z,35.90
2019-04-06T18:35:25.831Z,35.77
2019-04-06T18:38:16.996Z,35.82
2019-04-06T18:40:48.645Z,35.98
2019-04-06T18:43:20.638Z,36.00
2019-04-06T18:45:55.441Z,36.10
2019-04-06T18:48:29.319Z,36.08
2019-04-06T18:51:01.123Z,36.38
2019-04-06T18:53:33.091Z,36.48
2019-04-06T18:56:06.358Z,36.42
2019-04-06T18:58:38.097Z,36.71
2019-04-06T19:01:10.015Z,36.85
2019-04-06T19:03:41.755Z,37.07
2019-04-06T19:06:14.683Z,37.14
2019-04-06T19:08:46.254Z,37.21
2019-04-06T19:11:17.900Z,37.44
2019-04-06T19:13:51.277Z,37.56
2019-04-06T19:16:22.928Z,37.65
2019-04-06T19:18:54.870Z,37.75
2019-04-06T19:21:26.789Z,37.94
2019-04-06T19:23:58.784Z,37.99
2019-04-06T19:26:31.366Z,37.81
2019-04-06T19:29:03.014Z,38.09
2019-04-06T19:31:37.688Z,38.10
2019-04-06T19:34:10.184Z,38.28
2019-04-06T19:36:42.030Z,38.53
2019-04-06T19:39:15.203Z,38.49
2019-04-06T19:41:47.284Z,38.52
2019-04-06T19:44:19.301Z,38.41
2019-04-06T19:46:51.304Z,38.31
2019-04-06T19:49:23.141Z,38.57
2019-04-06T19:51:54.698Z,38.61
2019-04-06T19:54:26.819Z,38.71
2019-04-06T19:56:58.676Z,38.79
2019-04-06T19:59:30.348Z,38.91
2019-04-06T20:02:01.939Z,39.17
2019-04-06T20:04:35.804Z,39.07
2019-04-06T20:07:08.207Z,39.24
2019-04-06T20:09:42.134Z,39.19
2019-04-06T20:12:14.130Z,39.39
2019-04-06T20:14:45.749Z,39.54
2019-04-06T20:17:18.059Z,39.62
2019-04-06T20:19:49.746Z,39.83
2019-04-06T20:22:21.431Z,40.08
2019-04-06T20:24:53.178Z,39.90
2019-04-06T20:27:24.816Z,40.03
2019-04-06T20:29:57.904Z,40.06
2019-04-06T20:32:30.135Z,40.11
2019-04-06T20:35:01.890Z,40.13
2019-04-06T20:37:33.465Z,40.32
2019-04-06T20:40:08.602Z,40.54
2019-04-06T20:42:40.470Z,40.32
2019-04-06T20:45:12.971Z,40.62
2019-04-06T20:47:44.967Z,40.78
2019-04-06T20:50:16.879Z,40.89
2019-04-06T20:52:48.520Z,41.00
2019-04-06T20:55:20.142Z,41.33
2019-04-06T20:57:52.994Z,41.35
2019-04-06T21:00:25.675Z,41.46
2019-04-06T21:02:57.276Z,41.92
2019-04-06T21:05:28.915Z,42.02
2019-04-06T21:08:00.952Z,42.11
2019-04-06T21:10:32.679Z,42.37
2019-04-06T21:13:04.357Z,42.68
2019-04-06T21:15:35.877Z,42.94
2019-04-06T21:18:08.916Z,43.38
2019-04-06T21:20:41.167Z,43.54
2019-04-06T21:23:13.916Z,43.68
2019-04-06T21:25:45.547Z,43.80
2019-04-06T21:28:18.080Z,44.02
2019-04-06T21:30:50.886Z,44.18
2019-04-06T21:33:22.475Z,44.23
2019-04-06T21:35:54.091Z,44.57
2019-04-06T21:38:26.201Z,44.79
2019-04-06T21:40:58.377Z,44.96
2019-04-06T21:43:29.971Z,45.08
2019-04-06T21:46:02.386Z,45.36
2019-04-06T21:48:35.122Z,45.44
2019-04-06T21:51:06.793Z,45.50
2019-04-06T21:53:38.374Z,45.68
2019-04-06T21:56:10.003Z,45.97
2019-04-06T21:58:41.541Z,46.09
2019-04-06T22:01:15.487Z,46.41
2019-04-06T22:03:48.723Z,46.45
2019-04-06T22:06:20.658Z,46.51
2019-04-06T22:08:52.367Z,46.74
2019-04-06T22:11:25.595Z,46.84
2019-04-06T22:13:57.866Z,47.09
2019-04-06T22:16:29.859Z,47.24
2019-04-06T22:19:03.355Z,47.38
2019-04-06T22:21:35.035Z,47.62
2019-04-06T22:24:06.739Z,47.84
2019-04-06T22:26:38.441Z,48.11
2019-04-06T22:29:10.144Z,48.21
2019-04-06T22:31:44.901Z,48.24
2019-04-06T22:34:18.904Z,48.18
2019-04-06T22:36:50.683Z,48.07
2019-04-06T22:39:22.429Z,48.18
2019-04-06T22:41:54.058Z,48.25
2019-04-06T22:44:25.749Z,48.65
2019-04-06T22:46:57.983Z,48.81
2019-04-06T22:49:29.741Z,48.97
2019-04-06T22:52:01.320Z,49.26
2019-04-06T22:54:33.239Z,49.35
2019-04-06T22:57:05.383Z,49.49
2019-04-06T22:59:37.114Z,49.67
2019-04-06T23:02:09.341Z,49.85
2019-04-06T23:04:51.243Z,50.08
2019-04-06T23:07:23.530Z,50.20
2019-04-06T23:09:55.089Z,50.32
2019-04-06T23:12:26.713Z,50.55
2019-04-06T23:14:58.268Z,50.73
2019-04-06T23:17:29.857Z,50.74
2019-04-06T23:20:01.467Z,50.93
2019-04-06T23:22:33.063Z,51.13
2019-04-06T23:25:06.389Z,51.39
2019-04-06T23:27:37.963Z,51.54
2019-04-06T23:30:10.460Z,51.76
2019-04-06T23:32:42.300Z,52.07
2019-04-06T23:35:13.988Z,52.36
2019-04-06T23:37:45.896Z,52.22
2019-04-06T23:40:17.720Z,52.57
2019-04-06T23:42:49.362Z,52.74
2019-04-06T23:45:21.002Z,52.68
2019-04-06T23:47:52.535Z,52.62
2019-04-06T23:50:24.265Z,52.71
2019-04-06T23:52:56.227Z,52.75
2019-04-06T23:55:28.203Z,52.70
2019-04-06T23:57:59.990Z,52.79
